sensor_id;sensor_type;location;lat;lon;timestamp;P1;durP1;ratioP1;P2;durP2;ratioP2
57345;SDS011;43181;50.974;18.244;2022-07-21T00:01:33;14.40;;;9.10;;
57345;SDS011;43181;50.974;18.244;2022-07-21T00:04:17;12.50;;;9.00;;
57345;SDS011;43181;50.974;18.244;2022-07-21T00:07:02;12.20;;;8.60;;
57345;SDS011;43181;50.974;18.244;2022-07-21T00:09:46;14.20;;;8.40;;
57345;SDS011;43181;50.974;18.244;2022-07-21T00:12:30;14.80;;;8.90;;
57345;SDS011;43181;50.974;18.244;2022-07-21T00:15:15;15.80;;;9.40;;
57345;SDS011;43181;50.974;18.244;2022-07-21T00:18:00;13.80;;;9.00;;
57345;SDS011;43181;50.974;18.244;2022-07-21T00:20:44;14.10;;;8.30;;
57345;SDS011;43181;50.974;18.244;2022-07-21T00:23:28;11.90;;;8.10;;
57345;SDS011;43181;50.974;18.244;2022-07-21T00:26:13;11.30;;;8.60;;
57345;SDS011;43181;50.974;18.244;2022-07-21T00:28:58;11.80;;;8.00;;
57345;SDS011;43181;50.974;18.244;2022-07-21T00:31:43;10.70;;;7.60;;
57345;SDS011;43181;50.974;18.244;2022-07-21T00:34:27;12.80;;;8.40;;
57345;SDS011;43181;50.974;18.244;2022-07-21T00:37:11;12.30;;;8.10;;
57345;SDS011;43181;50.974;18.244;2022-07-21T00:39:55;12.10;;;8.00;;
57345;SDS011;43181;50.974;18.244;2022-07-21T00:42:39;11.90;;;8.30;;
57345;SDS011;43181;50.974;18.244;2022-07-21T00:45:23;13.50;;;8.20;;
57345;SDS011;43181;50.974;18.244;2022-07-21T00:48:08;13.40;;;8.20;;
57345;SDS011;43181;50.974;18.244;2022-07-21T00:50:52;12.80;;;7.70;;
57345;SDS011;43181;50.974;18.244;2022-07-21T00:53:36;8.70;;;6.60;;
57345;SDS011;43181;50.974;18.244;2022-07-21T00:56:20;10.70;;;7.40;;
57345;SDS011;43181;50.974;18.244;2022-07-21T00:59:05;11.20;;;6.80;;
57345;SDS011;43181;50.974;18.244;2022-07-21T01:01:49;11.30;;;7.20;;
57345;SDS011;43181;50.974;18.244;2022-07-21T01:04:33;9.30;;;6.60;;
57345;SDS011;43181;50.974;18.244;2022-07-21T01:07:17;10.20;;;7.20;;
57345;SDS011;43181;50.974;18.244;2022-07-21T01:10:03;11.90;;;7.20;;
57345;SDS011;43181;50.974;18.244;2022-07-21T01:12:48;11.30;;;7.30;;
57345;SDS011;43181;50.974;18.244;2022-07-21T01:15:33;10.60;;;6.70;;
57345;SDS011;43181;50.974;18.244;2022-07-21T01:18:17;9.80;;;6.70;;
57345;SDS011;43181;50.974;18.244;2022-07-21T01:21:03;9.60;;;6.40;;
57345;SDS011;43181;50.974;18.244;2022-07-21T01:24:04;9.40;;;7.00;;
57345;SDS011;43181;50.974;18.244;2022-07-21T01:26:50;10.50;;;6.60;;
57345;SDS011;43181;50.974;18.244;2022-07-21T01:29:36;10.40;;;6.60;;
57345;SDS011;43181;50.974;18.244;2022-07-21T01:32:20;9.70;;;6.20;;
57345;SDS011;43181;50.974;18.244;2022-07-21T01:35:05;8.20;;;6.20;;
57345;SDS011;43181;50.974;18.244;2022-07-21T01:37:51;9.70;;;6.30;;
57345;SDS011;43181;50.974;18.244;2022-07-21T01:40:35;9.00;;;6.30;;
57345;SDS011;43181;50.974;18.244;2022-07-21T01:43:38;11.90;;;6.50;;
57345;SDS011;43181;50.974;18.244;2022-07-21T01:46:23;9.30;;;6.50;;
57345;SDS011;43181;50.974;18.244;2022-07-21T01:49:07;9.20;;;6.00;;
57345;SDS011;43181;50.974;18.244;2022-07-21T01:51:52;8.50;;;5.70;;
57345;SDS011;43181;50.974;18.244;2022-07-21T01:54:36;9.20;;;6.30;;
57345;SDS011;43181;50.974;18.244;2022-07-21T01:57:20;8.70;;;6.20;;
57345;SDS011;43181;50.974;18.244;2022-07-21T02:00:04;9.00;;;5.80;;
57345;SDS011;43181;50.974;18.244;2022-07-21T02:02:49;8.50;;;5.80;;
57345;SDS011;43181;50.974;18.244;2022-07-21T02:05:34;9.60;;;5.90;;
57345;SDS011;43181;50.974;18.244;2022-07-21T02:08:18;7.80;;;5.80;;
57345;SDS011;43181;50.974;18.244;2022-07-21T02:11:06;8.40;;;5.90;;
57345;SDS011;43181;50.974;18.244;2022-07-21T02:13:50;8.10;;;5.60;;
57345;SDS011;43181;50.974;18.244;2022-07-21T02:16:34;10.10;;;6.70;;
57345;SDS011;43181;50.974;18.244;2022-07-21T02:19:19;9.40;;;5.60;;
57345;SDS011;43181;50.974;18.244;2022-07-21T02:22:03;7.20;;;5.10;;
57345;SDS011;43181;50.974;18.244;2022-07-21T02:24:47;7.40;;;5.30;;
57345;SDS011;43181;50.974;18.244;2022-07-21T02:27:31;8.30;;;5.90;;
57345;SDS011;43181;50.974;18.244;2022-07-21T02:30:15;8.00;;;5.50;;
57345;SDS011;43181;50.974;18.244;2022-07-21T02:32:59;7.80;;;5.30;;
57345;SDS011;43181;50.974;18.244;2022-07-21T02:35:43;11.80;;;6.00;;
57345;SDS011;43181;50.974;18.244;2022-07-21T02:38:28;9.80;;;5.60;;
57345;SDS011;43181;50.974;18.244;2022-07-21T02:41:12;8.60;;;5.40;;
57345;SDS011;43181;50.974;18.244;2022-07-21T02:43:56;7.10;;;5.10;;
57345;SDS011;43181;50.974;18.244;2022-07-21T02:46:40;7.60;;;5.40;;
57345;SDS011;43181;50.974;18.244;2022-07-21T02:49:24;7.90;;;5.70;;
57345;SDS011;43181;50.974;18.244;2022-07-21T02:52:08;10.50;;;5.90;;
57345;SDS011;43181;50.974;18.244;2022-07-21T02:54:52;8.00;;;5.80;;
57345;SDS011;43181;50.974;18.244;2022-07-21T02:57:36;11.90;;;6.20;;
57345;SDS011;43181;50.974;18.244;2022-07-21T03:00:20;9.40;;;5.40;;
57345;SDS011;43181;50.974;18.244;2022-07-21T03:03:05;10.10;;;6.30;;
57345;SDS011;43181;50.974;18.244;2022-07-21T03:05:49;9.50;;;5.60;;
57345;SDS011;43181;50.974;18.244;2022-07-21T03:08:34;7.90;;;5.50;;
57345;SDS011;43181;50.974;18.244;2022-07-21T03:11:18;11.80;;;5.90;;
57345;SDS011;43181;50.974;18.244;2022-07-21T03:14:03;12.50;;;6.50;;
57345;SDS011;43181;50.974;18.244;2022-07-21T03:16:47;11.00;;;6.20;;
57345;SDS011;43181;50.974;18.244;2022-07-21T03:19:31;9.50;;;6.10;;
57345;SDS011;43181;50.974;18.244;2022-07-21T03:22:15;9.00;;;5.70;;
57345;SDS011;43181;50.974;18.244;2022-07-21T03:24:59;7.90;;;5.70;;
57345;SDS011;43181;50.974;18.244;2022-07-21T03:27:44;8.40;;;6.00;;
57345;SDS011;43181;50.974;18.244;2022-07-21T03:30:28;7.60;;;5.70;;
57345;SDS011;43181;50.974;18.244;2022-07-21T03:33:13;7.30;;;5.60;;
57345;SDS011;43181;50.974;18.244;2022-07-21T03:35:57;9.70;;;5.90;;
57345;SDS011;43181;50.974;18.244;2022-07-21T03:38:42;6.60;;;5.40;;
57345;SDS011;43181;50.974;18.244;2022-07-21T03:41:26;8.20;;;6.00;;
57345;SDS011;43181;50.974;18.244;2022-07-21T03:44:10;9.70;;;6.00;;
57345;SDS011;43181;50.974;18.244;2022-07-21T03:46:55;7.30;;;5.70;;
57345;SDS011;43181;50.974;18.244;2022-07-21T03:49:42;8.70;;;5.70;;
57345;SDS011;43181;50.974;18.244;2022-07-21T03:52:26;10.50;;;6.80;;
57345;SDS011;43181;50.974;18.244;2022-07-21T03:55:10;9.00;;;6.00;;
57345;SDS011;43181;50.974;18.244;2022-07-21T03:58:00;9.30;;;6.30;;
57345;SDS011;43181;50.974;18.244;2022-07-21T04:00:46;10.70;;;6.30;;
57345;SDS011;43181;50.974;18.244;2022-07-21T04:03:30;7.80;;;5.70;;
57345;SDS011;43181;50.974;18.244;2022-07-21T04:06:18;10.20;;;6.40;;
57345;SDS011;43181;50.974;18.244;2022-07-21T04:09:02;10.00;;;6.20;;
57345;SDS011;43181;50.974;18.244;2022-07-21T04:11:47;9.40;;;6.20;;
57345;SDS011;43181;50.974;18.244;2022-07-21T04:14:31;9.70;;;6.10;;
57345;SDS011;43181;50.974;18.244;2022-07-21T04:17:15;11.20;;;5.80;;
57345;SDS011;43181;50.974;18.244;2022-07-21T04:19:59;11.10;;;6.30;;
57345;SDS011;43181;50.974;18.244;2022-07-21T04:22:43;14.30;;;6.60;;
57345;SDS011;43181;50.974;18.244;2022-07-21T04:25:28;11.70;;;7.30;;
57345;SDS011;43181;50.974;18.244;2022-07-21T04:28:13;10.70;;;6.50;;
57345;SDS011;43181;50.974;18.244;2022-07-21T04:30:57;8.90;;;6.50;;
57345;SDS011;43181;50.974;18.244;2022-07-21T04:33:41;9.90;;;6.40;;
57345;SDS011;43181;50.974;18.244;2022-07-21T04:36:25;9.50;;;6.40;;
57345;SDS011;43181;50.974;18.244;2022-07-21T04:39:09;10.80;;;6.40;;
57345;SDS011;43181;50.974;18.244;2022-07-21T04:41:54;9.70;;;6.20;;
57345;SDS011;43181;50.974;18.244;2022-07-21T04:44:38;8.80;;;5.40;;
57345;SDS011;43181;50.974;18.244;2022-07-21T04:47:22;9.80;;;5.40;;
57345;SDS011;43181;50.974;18.244;2022-07-21T04:50:08;6.80;;;4.90;;
57345;SDS011;43181;50.974;18.244;2022-07-21T04:52:53;7.70;;;5.30;;
57345;SDS011;43181;50.974;18.244;2022-07-21T04:55:37;7.50;;;5.40;;
57345;SDS011;43181;50.974;18.244;2022-07-21T04:58:21;7.90;;;5.80;;
57345;SDS011;43181;50.974;18.244;2022-07-21T05:01:06;8.90;;;5.90;;
57345;SDS011;43181;50.974;18.244;2022-07-21T05:03:50;9.00;;;5.70;;
57345;SDS011;43181;50.974;18.244;2022-07-21T05:06:34;8.40;;;5.80;;
57345;SDS011;43181;50.974;18.244;2022-07-21T05:09:18;8.40;;;5.50;;
57345;SDS011;43181;50.974;18.244;2022-07-21T05:12:03;9.00;;;5.60;;
57345;SDS011;43181;50.974;18.244;2022-07-21T05:14:47;10.70;;;6.40;;
57345;SDS011;43181;50.974;18.244;2022-07-21T05:17:31;9.10;;;5.70;;
57345;SDS011;43181;50.974;18.244;2022-07-21T05:20:16;8.50;;;5.40;;
57345;SDS011;43181;50.974;18.244;2022-07-21T05:23:00;9.70;;;6.20;;
57345;SDS011;43181;50.974;18.244;2022-07-21T05:25:45;7.20;;;5.70;;
57345;SDS011;43181;50.974;18.244;2022-07-21T05:28:29;8.10;;;5.60;;
57345;SDS011;43181;50.974;18.244;2022-07-21T05:31:14;9.60;;;6.00;;
57345;SDS011;43181;50.974;18.244;2022-07-21T05:33:58;9.30;;;5.80;;
57345;SDS011;43181;50.974;18.244;2022-07-21T05:36:42;8.00;;;5.40;;
57345;SDS011;43181;50.974;18.244;2022-07-21T05:39:26;8.80;;;5.70;;
57345;SDS011;43181;50.974;18.244;2022-07-21T05:42:10;7.10;;;5.20;;
57345;SDS011;43181;50.974;18.244;2022-07-21T05:44:54;7.10;;;4.80;;
57345;SDS011;43181;50.974;18.244;2022-07-21T05:47:40;7.80;;;5.40;;
57345;SDS011;43181;50.974;18.244;2022-07-21T05:50:25;11.50;;;5.90;;
57345;SDS011;43181;50.974;18.244;2022-07-21T05:53:09;8.10;;;5.20;;
57345;SDS011;43181;50.974;18.244;2022-07-21T05:55:54;8.00;;;5.20;;
57345;SDS011;43181;50.974;18.244;2022-07-21T05:58:38;8.40;;;5.40;;
57345;SDS011;43181;50.974;18.244;2022-07-21T06:01:22;8.20;;;5.30;;
57345;SDS011;43181;50.974;18.244;2022-07-21T06:04:06;7.30;;;4.90;;
57345;SDS011;43181;50.974;18.244;2022-07-21T06:06:50;8.70;;;4.80;;
57345;SDS011;43181;50.974;18.244;2022-07-21T06:09:36;7.30;;;5.00;;
57345;SDS011;43181;50.974;18.244;2022-07-21T06:12:20;7.60;;;5.30;;
57345;SDS011;43181;50.974;18.244;2022-07-21T06:15:04;6.70;;;4.80;;
57345;SDS011;43181;50.974;18.244;2022-07-21T06:17:50;7.10;;;5.30;;
57345;SDS011;43181;50.974;18.244;2022-07-21T06:20:34;10.30;;;5.50;;
57345;SDS011;43181;50.974;18.244;2022-07-21T06:23:18;8.00;;;5.10;;
57345;SDS011;43181;50.974;18.244;2022-07-21T06:26:02;8.00;;;5.20;;
57345;SDS011;43181;50.974;18.244;2022-07-21T06:28:46;7.90;;;5.40;;
57345;SDS011;43181;50.974;18.244;2022-07-21T06:31:31;7.30;;;5.10;;
57345;SDS011;43181;50.974;18.244;2022-07-21T06:34:15;6.50;;;5.20;;
57345;SDS011;43181;50.974;18.244;2022-07-21T06:37:00;8.50;;;5.50;;
57345;SDS011;43181;50.974;18.244;2022-07-21T06:39:46;7.70;;;4.80;;
57345;SDS011;43181;50.974;18.244;2022-07-21T06:42:30;7.50;;;4.80;;
57345;SDS011;43181;50.974;18.244;2022-07-21T06:45:14;6.60;;;4.40;;
57345;SDS011;43181;50.974;18.244;2022-07-21T06:47:59;6.70;;;4.20;;
57345;SDS011;43181;50.974;18.244;2022-07-21T06:50:44;5.90;;;4.70;;
57345;SDS011;43181;50.974;18.244;2022-07-21T06:53:28;6.30;;;4.50;;
57345;SDS011;43181;50.974;18.244;2022-07-21T06:56:12;6.20;;;4.20;;
57345;SDS011;43181;50.974;18.244;2022-07-21T06:58:56;6.40;;;4.10;;
57345;SDS011;43181;50.974;18.244;2022-07-21T07:01:40;8.10;;;4.80;;
57345;SDS011;43181;50.974;18.244;2022-07-21T07:04:25;6.40;;;4.10;;
57345;SDS011;43181;50.974;18.244;2022-07-21T07:07:09;5.80;;;4.20;;
57345;SDS011;43181;50.974;18.244;2022-07-21T07:09:54;6.80;;;4.20;;
57345;SDS011;43181;50.974;18.244;2022-07-21T07:12:38;8.00;;;4.50;;
57345;SDS011;43181;50.974;18.244;2022-07-21T07:15:22;5.20;;;4.30;;
57345;SDS011;43181;50.974;18.244;2022-07-21T07:18:07;5.50;;;3.90;;
57345;SDS011;43181;50.974;18.244;2022-07-21T07:20:51;7.70;;;4.60;;
57345;SDS011;43181;50.974;18.244;2022-07-21T07:23:36;6.10;;;4.20;;
57345;SDS011;43181;50.974;18.244;2022-07-21T07:26:20;5.20;;;4.20;;
57345;SDS011;43181;50.974;18.244;2022-07-21T07:29:04;6.10;;;4.70;;
57345;SDS011;43181;50.974;18.244;2022-07-21T07:31:48;5.50;;;4.60;;
57345;SDS011;43181;50.974;18.244;2022-07-21T07:34:32;4.80;;;4.00;;
57345;SDS011;43181;50.974;18.244;2022-07-21T07:37:16;6.00;;;4.20;;
57345;SDS011;43181;50.974;18.244;2022-07-21T07:40:02;8.00;;;4.90;;
57345;SDS011;43181;50.974;18.244;2022-07-21T07:42:47;5.60;;;4.20;;
57345;SDS011;43181;50.974;18.244;2022-07-21T07:45:33;7.10;;;4.80;;
57345;SDS011;43181;50.974;18.244;2022-07-21T07:48:20;6.20;;;4.40;;
57345;SDS011;43181;50.974;18.244;2022-07-21T07:51:04;6.40;;;4.20;;
57345;SDS011;43181;50.974;18.244;2022-07-21T07:53:48;5.80;;;4.00;;
57345;SDS011;43181;50.974;18.244;2022-07-21T07:56:32;5.00;;;3.60;;
57345;SDS011;43181;50.974;18.244;2022-07-21T07:59:16;5.60;;;3.90;;
57345;SDS011;43181;50.974;18.244;2022-07-21T08:02:01;6.70;;;4.00;;
57345;SDS011;43181;50.974;18.244;2022-07-21T08:04:45;8.80;;;4.40;;
57345;SDS011;43181;50.974;18.244;2022-07-21T08:07:29;6.30;;;4.10;;
57345;SDS011;43181;50.974;18.244;2022-07-21T08:10:13;5.90;;;4.10;;
57345;SDS011;43181;50.974;18.244;2022-07-21T08:12:58;5.20;;;4.10;;
57345;SDS011;43181;50.974;18.244;2022-07-21T08:15:43;5.40;;;3.80;;
57345;SDS011;43181;50.974;18.244;2022-07-21T08:18:29;4.60;;;4.00;;
57345;SDS011;43181;50.974;18.244;2022-07-21T08:21:13;4.80;;;3.70;;
57345;SDS011;43181;50.974;18.244;2022-07-21T08:23:57;4.40;;;3.60;;
57345;SDS011;43181;50.974;18.244;2022-07-21T08:26:41;4.20;;;3.70;;
57345;SDS011;43181;50.974;18.244;2022-07-21T08:29:26;4.90;;;3.70;;
57345;SDS011;43181;50.974;18.244;2022-07-21T08:32:09;7.20;;;3.90;;
57345;SDS011;43181;50.974;18.244;2022-07-21T08:34:53;4.40;;;3.40;;
57345;SDS011;43181;50.974;18.244;2022-07-21T08:37:38;6.20;;;3.80;;
57345;SDS011;43181;50.974;18.244;2022-07-21T08:40:23;5.80;;;3.70;;
57345;SDS011;43181;50.974;18.244;2022-07-21T08:43:09;4.70;;;3.70;;
57345;SDS011;43181;50.974;18.244;2022-07-21T08:45:54;4.90;;;3.50;;
57345;SDS011;43181;50.974;18.244;2022-07-21T08:48:39;4.60;;;3.50;;
57345;SDS011;43181;50.974;18.244;2022-07-21T08:51:23;6.70;;;4.20;;
57345;SDS011;43181;50.974;18.244;2022-07-21T08:54:08;7.20;;;3.60;;
57345;SDS011;43181;50.974;18.244;2022-07-21T08:56:52;5.20;;;3.70;;
57345;SDS011;43181;50.974;18.244;2022-07-21T08:59:38;5.30;;;3.60;;
57345;SDS011;43181;50.974;18.244;2022-07-21T09:02:30;5.50;;;3.50;;
57345;SDS011;43181;50.974;18.244;2022-07-21T09:05:17;5.10;;;3.60;;
57345;SDS011;43181;50.974;18.244;2022-07-21T09:08:01;4.10;;;3.20;;
57345;SDS011;43181;50.974;18.244;2022-07-21T09:10:45;5.70;;;3.70;;
57345;SDS011;43181;50.974;18.244;2022-07-21T09:13:29;3.90;;;3.30;;
57345;SDS011;43181;50.974;18.244;2022-07-21T09:16:13;5.80;;;3.60;;
57345;SDS011;43181;50.974;18.244;2022-07-21T09:18:57;4.60;;;3.30;;
57345;SDS011;43181;50.974;18.244;2022-07-21T09:21:41;7.00;;;3.50;;
57345;SDS011;43181;50.974;18.244;2022-07-21T09:27:14;4.90;;;3.30;;
57345;SDS011;43181;50.974;18.244;2022-07-21T09:30:00;6.00;;;3.50;;
57345;SDS011;43181;50.974;18.244;2022-07-21T09:32:44;6.20;;;3.80;;
57345;SDS011;43181;50.974;18.244;2022-07-21T09:35:28;3.80;;;3.30;;
57345;SDS011;43181;50.974;18.244;2022-07-21T09:38:12;6.50;;;3.40;;
57345;SDS011;43181;50.974;18.244;2022-07-21T09:41:03;4.90;;;3.20;;
57345;SDS011;43181;50.974;18.244;2022-07-21T09:43:52;3.80;;;3.10;;
57345;SDS011;43181;50.974;18.244;2022-07-21T09:46:38;4.80;;;3.20;;
57345;SDS011;43181;50.974;18.244;2022-07-21T09:49:26;3.40;;;3.00;;
57345;SDS011;43181;50.974;18.244;2022-07-21T09:55:06;4.90;;;3.70;;
57345;SDS011;43181;50.974;18.244;2022-07-21T09:57:51;6.20;;;3.20;;
57345;SDS011;43181;50.974;18.244;2022-07-21T10:00:35;5.00;;;3.10;;
57345;SDS011;43181;50.974;18.244;2022-07-21T10:03:20;5.90;;;3.30;;
57345;SDS011;43181;50.974;18.244;2022-07-21T10:06:04;5.10;;;3.80;;
57345;SDS011;43181;50.974;18.244;2022-07-21T10:08:49;5.00;;;3.30;;
57345;SDS011;43181;50.974;18.244;2022-07-21T10:11:33;5.80;;;3.20;;
57345;SDS011;43181;50.974;18.244;2022-07-21T10:14:17;5.70;;;3.10;;
57345;SDS011;43181;50.974;18.244;2022-07-21T10:17:01;4.40;;;3.10;;
57345;SDS011;43181;50.974;18.244;2022-07-21T10:26:00;3.90;;;2.80;;
57345;SDS011;43181;50.974;18.244;2022-07-21T10:28:46;5.30;;;3.10;;
57345;SDS011;43181;50.974;18.244;2022-07-21T10:31:30;6.80;;;3.10;;
57345;SDS011;43181;50.974;18.244;2022-07-21T10:34:14;5.70;;;2.80;;
57345;SDS011;43181;50.974;18.244;2022-07-21T10:36:58;5.00;;;3.10;;
57345;SDS011;43181;50.974;18.244;2022-07-21T10:39:45;6.40;;;3.30;;
57345;SDS011;43181;50.974;18.244;2022-07-21T10:42:29;6.10;;;3.30;;
57345;SDS011;43181;50.974;18.244;2022-07-21T10:51:20;5.20;;;3.30;;
57345;SDS011;43181;50.974;18.244;2022-07-21T10:54:18;6.30;;;3.40;;
57345;SDS011;43181;50.974;18.244;2022-07-21T11:15:03;5.80;;;3.40;;
57345;SDS011;43181;50.974;18.244;2022-07-21T11:17:40;4.30;;;3.10;;
57345;SDS011;43181;50.974;18.244;2022-07-21T11:20:24;5.60;;;3.20;;
57345;SDS011;43181;50.974;18.244;2022-07-21T11:23:08;6.30;;;3.50;;
57345;SDS011;43181;50.974;18.244;2022-07-21T11:25:52;5.00;;;3.50;;
57345;SDS011;43181;50.974;18.244;2022-07-21T11:28:37;4.90;;;3.40;;
57345;SDS011;43181;50.974;18.244;2022-07-21T11:31:22;6.30;;;3.00;;
57345;SDS011;43181;50.974;18.244;2022-07-21T11:34:08;5.60;;;3.20;;
57345;SDS011;43181;50.974;18.244;2022-07-21T11:36:59;5.10;;;3.10;;
57345;SDS011;43181;50.974;18.244;2022-07-21T11:39:44;4.70;;;3.00;;
57345;SDS011;43181;50.974;18.244;2022-07-21T11:42:32;6.00;;;3.30;;
57345;SDS011;43181;50.974;18.244;2022-07-21T11:45:17;5.70;;;3.10;;
57345;SDS011;43181;50.974;18.244;2022-07-21T11:48:01;6.70;;;3.60;;
57345;SDS011;43181;50.974;18.244;2022-07-21T11:50:57;6.80;;;3.50;;
57345;SDS011;43181;50.974;18.244;2022-07-21T11:53:45;5.90;;;3.50;;
57345;SDS011;43181;50.974;18.244;2022-07-21T11:56:35;7.10;;;3.60;;
57345;SDS011;43181;50.974;18.244;2022-07-21T11:59:21;5.50;;;3.20;;
57345;SDS011;43181;50.974;18.244;2022-07-21T12:05:03;6.20;;;3.30;;
57345;SDS011;43181;50.974;18.244;2022-07-21T12:07:50;5.60;;;3.00;;
57345;SDS011;43181;50.974;18.244;2022-07-21T12:10:38;5.70;;;3.60;;
57345;SDS011;43181;50.974;18.244;2022-07-21T12:13:22;4.90;;;3.50;;
57345;SDS011;43181;50.974;18.244;2022-07-21T12:16:06;5.00;;;2.90;;
57345;SDS011;43181;50.974;18.244;2022-07-21T12:19:08;6.60;;;3.10;;
57345;SDS011;43181;50.974;18.244;2022-07-21T12:21:55;5.80;;;3.40;;
57345;SDS011;43181;50.974;18.244;2022-07-21T12:24:55;4.30;;;3.40;;
57345;SDS011;43181;50.974;18.244;2022-07-21T12:27:44;6.20;;;3.40;;
57345;SDS011;43181;50.974;18.244;2022-07-21T12:30:40;3.30;;;2.50;;
57345;SDS011;43181;50.974;18.244;2022-07-21T12:33:28;5.70;;;3.00;;
57345;SDS011;43181;50.974;18.244;2022-07-21T12:36:13;6.20;;;3.80;;
57345;SDS011;43181;50.974;18.244;2022-07-21T12:38:57;6.20;;;3.20;;
57345;SDS011;43181;50.974;18.244;2022-07-21T12:41:44;5.10;;;3.20;;
57345;SDS011;43181;50.974;18.244;2022-07-21T12:44:28;5.00;;;3.10;;
57345;SDS011;43181;50.974;18.244;2022-07-21T12:47:14;5.80;;;3.00;;
57345;SDS011;43181;50.974;18.244;2022-07-21T12:50:12;4.50;;;3.10;;
57345;SDS011;43181;50.974;18.244;2022-07-21T12:52:58;6.30;;;3.60;;
57345;SDS011;43181;50.974;18.244;2022-07-21T12:55:42;5.00;;;3.10;;
57345;SDS011;43181;50.974;18.244;2022-07-21T12:58:26;3.50;;;2.90;;
57345;SDS011;43181;50.974;18.244;2022-07-21T13:01:11;6.40;;;3.40;;
57345;SDS011;43181;50.974;18.244;2022-07-21T13:03:55;4.60;;;3.00;;
57345;SDS011;43181;50.974;18.244;2022-07-21T13:06:39;7.80;;;3.10;;
57345;SDS011;43181;50.974;18.244;2022-07-21T13:09:23;5.40;;;3.10;;
57345;SDS011;43181;50.974;18.244;2022-07-21T13:12:07;5.80;;;3.10;;
57345;SDS011;43181;50.974;18.244;2022-07-21T13:14:53;4.70;;;2.80;;
57345;SDS011;43181;50.974;18.244;2022-07-21T13:17:37;5.20;;;2.80;;
57345;SDS011;43181;50.974;18.244;2022-07-21T13:20:21;5.50;;;3.10;;
57345;SDS011;43181;50.974;18.244;2022-07-21T13:23:08;7.20;;;3.40;;
57345;SDS011;43181;50.974;18.244;2022-07-21T13:25:52;6.00;;;3.30;;
57345;SDS011;43181;50.974;18.244;2022-07-21T13:28:36;6.30;;;3.50;;
57345;SDS011;43181;50.974;18.244;2022-07-21T13:31:21;7.20;;;3.10;;
57345;SDS011;43181;50.974;18.244;2022-07-21T13:34:05;6.80;;;3.40;;
57345;SDS011;43181;50.974;18.244;2022-07-21T13:36:53;6.20;;;3.40;;
57345;SDS011;43181;50.974;18.244;2022-07-21T13:39:38;6.50;;;3.50;;
57345;SDS011;43181;50.974;18.244;2022-07-21T13:42:22;5.40;;;3.40;;
57345;SDS011;43181;50.974;18.244;2022-07-21T13:45:06;4.00;;;3.20;;
57345;SDS011;43181;50.974;18.244;2022-07-21T13:47:52;5.50;;;3.20;;
57345;SDS011;43181;50.974;18.244;2022-07-21T13:50:37;5.00;;;3.20;;
57345;SDS011;43181;50.974;18.244;2022-07-21T13:53:20;6.50;;;3.60;;
57345;SDS011;43181;50.974;18.244;2022-07-21T13:56:05;7.40;;;3.10;;
57345;SDS011;43181;50.974;18.244;2022-07-21T13:58:49;6.20;;;3.10;;
57345;SDS011;43181;50.974;18.244;2022-07-21T14:01:33;4.10;;;3.10;;
57345;SDS011;43181;50.974;18.244;2022-07-21T14:04:17;6.60;;;3.60;;
57345;SDS011;43181;50.974;18.244;2022-07-21T14:07:01;6.20;;;3.90;;
57345;SDS011;43181;50.974;18.244;2022-07-21T14:09:45;7.40;;;3.70;;
57345;SDS011;43181;50.974;18.244;2022-07-21T14:12:29;8.10;;;4.30;;
57345;SDS011;43181;50.974;18.244;2022-07-21T14:15:13;5.20;;;3.80;;
57345;SDS011;43181;50.974;18.244;2022-07-21T14:17:57;6.60;;;4.10;;
57345;SDS011;43181;50.974;18.244;2022-07-21T14:20:41;6.80;;;4.00;;
57345;SDS011;43181;50.974;18.244;2022-07-21T14:23:25;6.60;;;3.80;;
57345;SDS011;43181;50.974;18.244;2022-07-21T14:26:09;5.90;;;3.70;;
57345;SDS011;43181;50.974;18.244;2022-07-21T14:28:54;7.20;;;4.40;;
57345;SDS011;43181;50.974;18.244;2022-07-21T14:31:38;7.30;;;4.30;;
57345;SDS011;43181;50.974;18.244;2022-07-21T14:34:22;6.30;;;3.70;;
57345;SDS011;43181;50.974;18.244;2022-07-21T14:37:06;6.40;;;3.80;;
57345;SDS011;43181;50.974;18.244;2022-07-21T14:39:50;10.60;;;4.10;;
57345;SDS011;43181;50.974;18.244;2022-07-21T14:42:35;6.70;;;4.20;;
57345;SDS011;43181;50.974;18.244;2022-07-21T14:45:21;6.60;;;3.80;;
57345;SDS011;43181;50.974;18.244;2022-07-21T14:48:06;6.50;;;3.80;;
57345;SDS011;43181;50.974;18.244;2022-07-21T14:50:51;5.50;;;4.20;;
57345;SDS011;43181;50.974;18.244;2022-07-21T14:53:35;8.50;;;4.20;;
57345;SDS011;43181;50.974;18.244;2022-07-21T14:56:19;4.40;;;3.30;;
57345;SDS011;43181;50.974;18.244;2022-07-21T14:59:03;7.70;;;3.90;;
57345;SDS011;43181;50.974;18.244;2022-07-21T15:01:47;9.00;;;4.10;;
57345;SDS011;43181;50.974;18.244;2022-07-21T15:04:32;6.80;;;3.80;;
57345;SDS011;43181;50.974;18.244;2022-07-21T15:07:16;4.70;;;3.90;;
57345;SDS011;43181;50.974;18.244;2022-07-21T15:10:00;5.50;;;3.60;;
57345;SDS011;43181;50.974;18.244;2022-07-21T15:12:44;8.40;;;3.80;;
57345;SDS011;43181;50.974;18.244;2022-07-21T15:15:28;6.10;;;3.40;;
57345;SDS011;43181;50.974;18.244;2022-07-21T15:18:12;6.20;;;4.10;;
57345;SDS011;43181;50.974;18.244;2022-07-21T15:20:57;7.20;;;3.70;;
57345;SDS011;43181;50.974;18.244;2022-07-21T15:23:41;6.40;;;3.60;;
57345;SDS011;43181;50.974;18.244;2022-07-21T15:26:25;7.00;;;4.20;;
57345;SDS011;43181;50.974;18.244;2022-07-21T15:29:09;5.40;;;3.90;;
57345;SDS011;43181;50.974;18.244;2022-07-21T15:31:54;8.70;;;4.30;;
57345;SDS011;43181;50.974;18.244;2022-07-21T15:34:38;6.90;;;3.90;;
57345;SDS011;43181;50.974;18.244;2022-07-21T15:37:22;7.50;;;4.10;;
57345;SDS011;43181;50.974;18.244;2022-07-21T15:40:06;6.20;;;3.70;;
57345;SDS011;43181;50.974;18.244;2022-07-21T15:42:51;8.30;;;4.00;;
57345;SDS011;43181;50.974;18.244;2022-07-21T15:45:35;8.80;;;4.20;;
57345;SDS011;43181;50.974;18.244;2022-07-21T15:48:19;10.50;;;4.60;;
57345;SDS011;43181;50.974;18.244;2022-07-21T15:51:03;6.20;;;3.60;;
57345;SDS011;43181;50.974;18.244;2022-07-21T15:53:48;6.10;;;3.70;;
57345;SDS011;43181;50.974;18.244;2022-07-21T15:56:32;6.50;;;3.90;;
57345;SDS011;43181;50.974;18.244;2022-07-21T15:59:17;8.10;;;4.20;;
57345;SDS011;43181;50.974;18.244;2022-07-21T16:02:20;8.30;;;3.90;;
57345;SDS011;43181;50.974;18.244;2022-07-21T16:05:04;8.00;;;4.00;;
57345;SDS011;43181;50.974;18.244;2022-07-21T16:07:48;6.60;;;3.70;;
57345;SDS011;43181;50.974;18.244;2022-07-21T16:10:34;6.40;;;4.40;;
57345;SDS011;43181;50.974;18.244;2022-07-21T16:13:18;9.70;;;4.30;;
57345;SDS011;43181;50.974;18.244;2022-07-21T16:16:03;5.80;;;4.00;;
57345;SDS011;43181;50.974;18.244;2022-07-21T16:18:47;6.00;;;4.10;;
57345;SDS011;43181;50.974;18.244;2022-07-21T16:21:31;5.80;;;3.90;;
57345;SDS011;43181;50.974;18.244;2022-07-21T16:24:15;7.90;;;3.80;;
57345;SDS011;43181;50.974;18.244;2022-07-21T16:27:00;8.20;;;4.00;;
57345;SDS011;43181;50.974;18.244;2022-07-21T16:29:45;9.10;;;4.20;;
57345;SDS011;43181;50.974;18.244;2022-07-21T16:32:28;9.10;;;4.00;;
57345;SDS011;43181;50.974;18.244;2022-07-21T16:35:13;8.50;;;3.90;;
57345;SDS011;43181;50.974;18.244;2022-07-21T16:38:00;6.90;;;4.30;;
57345;SDS011;43181;50.974;18.244;2022-07-21T16:40:44;6.40;;;4.10;;
57345;SDS011;43181;50.974;18.244;2022-07-21T16:43:28;8.90;;;4.70;;
57345;SDS011;43181;50.974;18.244;2022-07-21T16:46:12;9.90;;;4.60;;
57345;SDS011;43181;50.974;18.244;2022-07-21T16:48:56;5.30;;;3.80;;
57345;SDS011;43181;50.974;18.244;2022-07-21T16:51:41;7.30;;;4.40;;
57345;SDS011;43181;50.974;18.244;2022-07-21T16:54:25;7.20;;;3.70;;
57345;SDS011;43181;50.974;18.244;2022-07-21T16:57:10;8.10;;;4.10;;